sensor_id;sensor_type;location;lat;lon;timestamp;pressure;altitude;pressure_sealevel;temperature;humidity
49311;BME280;35177;45.900;5.946;2023-05-25T00:00:10;97546.53;;;13.00;69.79
49311;BME280;35177;45.900;5.946;2023-05-25T00:02:37;97553.28;;;13.04;69.16
49311;BME280;35177;45.900;5.946;2023-05-25T00:05:04;97553.38;;;12.92;69.57
49311;BME280;35177;45.900;5.946;2023-05-25T00:07:30;97545.53;;;12.90;70.30
49311;BME280;35177;45.900;5.946;2023-05-25T00:09:55;97547.44;;;12.88;70.36
49311;BME280;35177;45.900;5.946;2023-05-25T00:12:20;97553.72;;;12.87;70.11
49311;BME280;35177;45.900;5.946;2023-05-25T00:14:46;97545.22;;;12.71;71.33
49311;BME280;35177;45.900;5.946;2023-05-25T00:17:11;97547.28;;;12.44;72.35
49311;BME280;35177;45.900;5.946;2023-05-25T00:19:37;97558.16;;;12.17;73.98
49311;BME280;35177;45.900;5.946;2023-05-25T00:22:07;97544.41;;;12.47;72.17
49311;BME280;35177;45.900;5.946;2023-05-25T00:24:33;97536.72;;;12.31;72.71
49311;BME280;35177;45.900;5.946;2023-05-25T00:26:58;97545.81;;;12.16;72.71
49311;BME280;35177;45.900;5.946;2023-05-25T00:29:24;97540.69;;;12.26;72.62
49311;BME280;35177;45.900;5.946;2023-05-25T00:31:51;97553.06;;;11.65;75.63
49311;BME280;35177;45.900;5.946;2023-05-25T00:34:16;97546.69;;;11.55;74.61
49311;BME280;35177;45.900;5.946;2023-05-25T00:36:42;97547.13;;;11.49;75.08
49311;BME280;35177;45.900;5.946;2023-05-25T00:39:08;97551.16;;;11.67;74.38
49311;BME280;35177;45.900;5.946;2023-05-25T00:41:35;97553.63;;;11.94;74.46
49311;BME280;35177;45.900;5.946;2023-05-25T00:44:06;97554.28;;;11.98;74.58
49311;BME280;35177;45.900;5.946;2023-05-25T00:46:33;97549.38;;;11.68;76.34
49311;BME280;35177;45.900;5.946;2023-05-25T00:48:59;97550.09;;;11.70;74.25
49311;BME280;35177;45.900;5.946;2023-05-25T00:51:26;97545.97;;;11.53;75.74
49311;BME280;35177;45.900;5.946;2023-05-25T00:53:51;97546.41;;;11.35;75.36
49311;BME280;35177;45.900;5.946;2023-05-25T00:56:18;97543.34;;;11.28;76.85
49311;BME280;35177;45.900;5.946;2023-05-25T00:58:50;97548.41;;;11.56;75.40
49311;BME280;35177;45.900;5.946;2023-05-25T01:01:19;97553.06;;;11.53;75.17
49311;BME280;35177;45.900;5.946;2023-05-25T01:03:48;97546.22;;;11.12;76.46
49311;BME280;35177;45.900;5.946;2023-05-25T01:06:19;97546.53;;;11.21;77.07
49311;BME280;35177;45.900;5.946;2023-05-25T01:08:52;97549.59;;;11.02;76.81
49311;BME280;35177;45.900;5.946;2023-05-25T01:11:31;97546.41;;;11.22;75.23
49311;BME280;35177;45.900;5.946;2023-05-25T01:13:57;97536.13;;;11.30;77.11
49311;BME280;35177;45.900;5.946;2023-05-25T01:16:24;97541.66;;;11.02;77.01
49311;BME280;35177;45.900;5.946;2023-05-25T01:18:50;97537.59;;;11.34;75.98
49311;BME280;35177;45.900;5.946;2023-05-25T01:26:57;97539.88;;;11.64;74.93
49311;BME280;35177;45.900;5.946;2023-05-25T01:29:25;97537.78;;;11.81;75.08
49311;BME280;35177;45.900;5.946;2023-05-25T01:31:52;97536.66;;;11.97;74.26
49311;BME280;35177;45.900;5.946;2023-05-25T01:34:19;97540.50;;;11.93;74.97
49311;BME280;35177;45.900;5.946;2023-05-25T01:36:45;97532.03;;;11.88;76.01
49311;BME280;35177;45.900;5.946;2023-05-25T01:39:11;97540.44;;;11.81;75.77
49311;BME280;35177;45.900;5.946;2023-05-25T01:41:37;97539.25;;;11.85;75.88
49311;BME280;35177;45.900;5.946;2023-05-25T01:44:03;97541.59;;;12.14;74.63
49311;BME280;35177;45.900;5.946;2023-05-25T01:46:38;97545.03;;;12.27;73.99
49311;BME280;35177;45.900;5.946;2023-05-25T01:49:26;97535.22;;;12.40;72.83
49311;BME280;35177;45.900;5.946;2023-05-25T01:52:06;97538.72;;;12.40;74.27
49311;BME280;35177;45.900;5.946;2023-05-25T01:54:37;97534.97;;;12.43;73.79
49311;BME280;35177;45.900;5.946;2023-05-25T01:57:09;97541.75;;;12.23;75.60
49311;BME280;35177;45.900;5.946;2023-05-25T01:59:37;97534.41;;;12.27;74.83
49311;BME280;35177;45.900;5.946;2023-05-25T02:02:04;97538.47;;;12.20;75.90
49311;BME280;35177;45.900;5.946;2023-05-25T02:04:30;97540.84;;;12.12;78.72
49311;BME280;35177;45.900;5.946;2023-05-25T02:06:56;97534.31;;;12.05;79.37
49311;BME280;35177;45.900;5.946;2023-05-25T02:09:21;97538.41;;;12.09;77.23
49311;BME280;35177;45.900;5.946;2023-05-25T02:11:47;97527.22;;;12.29;75.75
49311;BME280;35177;45.900;5.946;2023-05-25T02:14:13;97527.88;;;12.20;76.80
49311;BME280;35177;45.900;5.946;2023-05-25T02:16:40;97524.88;;;12.24;75.80
49311;BME280;35177;45.900;5.946;2023-05-25T02:19:05;97534.56;;;12.36;75.21
49311;BME280;35177;45.900;5.946;2023-05-25T02:21:31;97528.94;;;12.41;74.37
49311;BME280;35177;45.900;5.946;2023-05-25T02:23:56;97530.34;;;12.34;75.40
49311;BME280;35177;45.900;5.946;2023-05-25T02:26:22;97526.53;;;12.14;78.64
49311;BME280;35177;45.900;5.946;2023-05-25T02:28:47;97528.22;;;11.92;81.19
49311;BME280;35177;45.900;5.946;2023-05-25T02:31:13;97522.22;;;12.01;80.87
49311;BME280;35177;45.900;5.946;2023-05-25T02:33:38;97528.03;;;11.82;82.38
49311;BME280;35177;45.900;5.946;2023-05-25T02:36:04;97526.09;;;11.84;82.25
49311;BME280;35177;45.900;5.946;2023-05-25T02:38:30;97522.06;;;11.91;79.21
49311;BME280;35177;45.900;5.946;2023-05-25T02:40:55;97514.53;;;12.09;77.70
49311;BME280;35177;45.900;5.946;2023-05-25T02:43:21;97513.25;;;12.14;78.27
49311;BME280;35177;45.900;5.946;2023-05-25T02:45:46;97519.19;;;12.18;77.77
49311;BME280;35177;45.900;5.946;2023-05-25T02:48:11;97510.53;;;12.27;76.97
49311;BME280;35177;45.900;5.946;2023-05-25T02:50:37;97504.75;;;12.22;76.10
49311;BME280;35177;45.900;5.946;2023-05-25T02:53:03;97512.03;;;12.31;75.25
49311;BME280;35177;45.900;5.946;2023-05-25T02:55:28;97509.84;;;12.36;73.48
49311;BME280;35177;45.900;5.946;2023-05-25T02:57:54;97512.91;;;12.42;72.83
49311;BME280;35177;45.900;5.946;2023-05-25T03:00:19;97513.94;;;12.29;73.21
49311;BME280;35177;45.900;5.946;2023-05-25T03:02:45;97511.22;;;12.18;74.72
49311;BME280;35177;45.900;5.946;2023-05-25T03:05:14;97513.13;;;12.16;74.87
49311;BME280;35177;45.900;5.946;2023-05-25T03:07:40;97512.41;;;12.14;75.47
49311;BME280;35177;45.900;5.946;2023-05-25T03:10:08;97513.59;;;12.10;75.40
49311;BME280;35177;45.900;5.946;2023-05-25T03:12:33;97508.63;;;12.05;75.29
49311;BME280;35177;45.900;5.946;2023-05-25T03:14:59;97515.94;;;12.02;74.04
49311;BME280;35177;45.900;5.946;2023-05-25T03:17:24;97513.75;;;11.96;74.96
49311;BME280;35177;45.900;5.946;2023-05-25T03:19:50;97516.28;;;11.97;74.67
49311;BME280;35177;45.900;5.946;2023-05-25T03:22:16;97517.59;;;11.92;75.02
49311;BME280;35177;45.900;5.946;2023-05-25T03:24:41;97517.59;;;11.92;74.45
49311;BME280;35177;45.900;5.946;2023-05-25T03:27:07;97518.22;;;11.95;74.97
49311;BME280;35177;45.900;5.946;2023-05-25T03:29:33;97522.06;;;11.91;76.52
49311;BME280;35177;45.900;5.946;2023-05-25T03:31:58;97521.22;;;11.78;78.17
49311;BME280;35177;45.900;5.946;2023-05-25T03:34:24;97525.78;;;11.89;76.25
49311;BME280;35177;45.900;5.946;2023-05-25T03:36:50;97521.34;;;11.76;75.67
49311;BME280;35177;45.900;5.946;2023-05-25T03:39:18;97513.31;;;12.02;73.93
49311;BME280;35177;45.900;5.946;2023-05-25T03:41:45;97517.19;;;12.09;73.26
49311;BME280;35177;45.900;5.946;2023-05-25T03:44:11;97521.44;;;12.11;73.37
49311;BME280;35177;45.900;5.946;2023-05-25T03:46:37;97519.78;;;11.98;72.91
49311;BME280;35177;45.900;5.946;2023-05-25T03:49:02;97518.09;;;11.97;73.09
49311;BME280;35177;45.900;5.946;2023-05-25T03:51:28;97525.56;;;11.66;74.86
49311;BME280;35177;45.900;5.946;2023-05-25T03:53:54;97521.50;;;11.37;76.62
49311;BME280;35177;45.900;5.946;2023-05-25T03:56:20;97529.84;;;11.56;74.27
49311;BME280;35177;45.900;5.946;2023-05-25T03:58:45;97529.09;;;11.79;73.47
49311;BME280;35177;45.900;5.946;2023-05-25T04:01:11;97535.50;;;11.27;76.48
49311;BME280;35177;45.900;5.946;2023-05-25T04:03:37;97540.16;;;10.98;78.20
49311;BME280;35177;45.900;5.946;2023-05-25T04:06:03;97539.00;;;11.02;78.40
49311;BME280;35177;45.900;5.946;2023-05-25T04:08:29;97549.22;;;10.69;79.03
49311;BME280;35177;45.900;5.946;2023-05-25T04:10:54;97545.31;;;10.74;79.80
49311;BME280;35177;45.900;5.946;2023-05-25T04:13:20;97556.88;;;10.73;79.51
49311;BME280;35177;45.900;5.946;2023-05-25T04:15:46;97548.56;;;10.53;80.98
49311;BME280;35177;45.900;5.946;2023-05-25T04:18:11;97552.06;;;10.53;81.41
49311;BME280;35177;45.900;5.946;2023-05-25T04:20:37;97548.47;;;10.27;81.82
49311;BME280;35177;45.900;5.946;2023-05-25T04:23:02;97551.75;;;10.58;80.96
49311;BME280;35177;45.900;5.946;2023-05-25T04:25:27;97549.50;;;10.52;82.08
49311;BME280;35177;45.900;5.946;2023-05-25T04:27:54;97553.09;;;10.38;82.26
49311;BME280;35177;45.900;5.946;2023-05-25T04:30:21;97551.75;;;10.58;82.41
49311;BME280;35177;45.900;5.946;2023-05-25T04:32:46;97552.63;;;10.83;79.88
49311;BME280;35177;45.900;5.946;2023-05-25T04:35:12;97558.44;;;10.76;81.63
49311;BME280;35177;45.900;5.946;2023-05-25T04:37:39;97549.03;;;10.97;79.97
49311;BME280;35177;45.900;5.946;2023-05-25T04:40:07;97550.44;;;11.02;81.67
49311;BME280;35177;45.900;5.946;2023-05-25T04:42:35;97546.28;;;10.86;81.81
49311;BME280;35177;45.900;5.946;2023-05-25T04:45:03;97548.19;;;10.84;83.19
49311;BME280;35177;45.900;5.946;2023-05-25T04:47:28;97556.03;;;10.73;83.17
49311;BME280;35177;45.900;5.946;2023-05-25T04:49:55;97550.00;;;10.83;82.74
49311;BME280;35177;45.900;5.946;2023-05-25T04:52:20;97556.03;;;11.10;79.03
49311;BME280;35177;45.900;5.946;2023-05-25T04:54:46;97548.88;;;11.12;81.07
49311;BME280;35177;45.900;5.946;2023-05-25T04:57:11;97551.59;;;11.36;78.53
49311;BME280;35177;45.900;5.946;2023-05-25T04:59:37;97550.00;;;11.46;78.17
49311;BME280;35177;45.900;5.946;2023-05-25T05:02:02;97552.53;;;11.60;78.19
49311;BME280;35177;45.900;5.946;2023-05-25T05:04:28;97552.94;;;11.67;76.76
49311;BME280;35177;45.900;5.946;2023-05-25T05:06:54;97564.06;;;11.59;80.56
49311;BME280;35177;45.900;5.946;2023-05-25T05:09:20;97566.81;;;11.83;76.59
49311;BME280;35177;45.900;5.946;2023-05-25T05:11:45;97560.31;;;12.00;75.01
49311;BME280;35177;45.900;5.946;2023-05-25T05:14:10;97565.34;;;11.92;74.57
49311;BME280;35177;45.900;5.946;2023-05-25T05:16:36;97576.03;;;11.90;74.22
49311;BME280;35177;45.900;5.946;2023-05-25T05:19:02;97584.63;;;11.94;74.73
49311;BME280;35177;45.900;5.946;2023-05-25T05:21:28;97581.13;;;11.93;74.82
49311;BME280;35177;45.900;5.946;2023-05-25T05:23:54;97580.34;;;12.04;73.17
49311;BME280;35177;45.900;5.946;2023-05-25T05:26:21;97592.94;;;12.13;73.79
49311;BME280;35177;45.900;5.946;2023-05-25T05:28:47;97582.84;;;12.18;72.22
49311;BME280;35177;45.900;5.946;2023-05-25T05:31:13;97584.53;;;12.19;72.74
49311;BME280;35177;45.900;5.946;2023-05-25T05:33:41;97596.59;;;12.35;72.00
49311;BME280;35177;45.900;5.946;2023-05-25T05:36:07;97597.66;;;12.33;72.76
49311;BME280;35177;45.900;5.946;2023-05-25T05:38:33;97598.91;;;12.40;71.22
49311;BME280;35177;45.900;5.946;2023-05-25T05:40:58;97598.50;;;12.33;71.25
49311;BME280;35177;45.900;5.946;2023-05-25T05:43:24;97599.97;;;12.37;72.89
49311;BME280;35177;45.900;5.946;2023-05-25T05:45:49;97595.44;;;12.27;71.61
49311;BME280;35177;45.900;5.946;2023-05-25T05:48:16;97598.84;;;12.29;72.22
49311;BME280;35177;45.900;5.946;2023-05-25T05:50:41;97597.69;;;12.20;72.53
49311;BME280;35177;45.900;5.946;2023-05-25T05:53:07;97605.88;;;12.41;71.68
49311;BME280;35177;45.900;5.946;2023-05-25T05:55:34;97597.94;;;12.41;71.34
49311;BME280;35177;45.900;5.946;2023-05-25T05:57:59;97596.66;;;12.46;70.95
49311;BME280;35177;45.900;5.946;2023-05-25T06:00:25;97588.28;;;12.40;71.63
49311;BME280;35177;45.900;5.946;2023-05-25T06:02:51;97604.13;;;12.52;72.34
49311;BME280;35177;45.900;5.946;2023-05-25T06:05:16;97599.34;;;12.57;71.23
49311;BME280;35177;45.900;5.946;2023-05-25T06:07:42;97603.97;;;12.67;69.97
49311;BME280;35177;45.900;5.946;2023-05-25T06:10:08;97618.91;;;12.57;70.22
49311;BME280;35177;45.900;5.946;2023-05-25T06:12:33;97624.09;;;12.58;71.69
49311;BME280;35177;45.900;5.946;2023-05-25T06:14:59;97617.94;;;12.57;70.82
49311;BME280;35177;45.900;5.946;2023-05-25T06:17:25;97631.75;;;12.50;70.61
49311;BME280;35177;45.900;5.946;2023-05-25T06:19:51;97629.00;;;12.51;72.08
49311;BME280;35177;45.900;5.946;2023-05-25T06:22:17;97621.28;;;12.72;70.65
49311;BME280;35177;45.900;5.946;2023-05-25T06:24:42;97622.56;;;12.67;69.13
49311;BME280;35177;45.900;5.946;2023-05-25T06:27:08;97622.00;;;12.74;70.35
49311;BME280;35177;45.900;5.946;2023-05-25T06:29:33;97630.25;;;12.82;70.64
49311;BME280;35177;45.900;5.946;2023-05-25T06:31:59;97627.38;;;12.96;70.76
49311;BME280;35177;45.900;5.946;2023-05-25T06:34:24;97629.22;;;12.96;70.31
49311;BME280;35177;45.900;5.946;2023-05-25T06:36:50;97628.97;;;12.99;68.55
49311;BME280;35177;45.900;5.946;2023-05-25T06:39:16;97618.53;;;13.08;67.48
49311;BME280;35177;45.900;5.946;2023-05-25T06:41:42;97626.22;;;13.24;67.91
49311;BME280;35177;45.900;5.946;2023-05-25T06:44:07;97631.44;;;13.48;67.73
49311;BME280;35177;45.900;5.946;2023-05-25T06:46:33;97633.63;;;13.43;66.96
49311;BME280;35177;45.900;5.946;2023-05-25T06:48:59;97634.91;;;13.37;65.71
49311;BME280;35177;45.900;5.946;2023-05-25T06:51:25;97640.00;;;13.40;67.40
49311;BME280;35177;45.900;5.946;2023-05-25T06:53:53;97638.69;;;13.46;67.78
49311;BME280;35177;45.900;5.946;2023-05-25T06:56:18;97642.03;;;13.37;67.94
49311;BME280;35177;45.900;5.946;2023-05-25T06:58:44;97640.00;;;13.40;66.59
49311;BME280;35177;45.900;5.946;2023-05-25T07:01:10;97642.88;;;13.26;67.44
49311;BME280;35177;45.900;5.946;2023-05-25T07:03:35;97642.31;;;13.45;69.12
49311;BME280;35177;45.900;5.946;2023-05-25T07:06:03;97645.69;;;13.47;67.02
49311;BME280;35177;45.900;5.946;2023-05-25T07:08:28;97656.34;;;13.47;66.19
49311;BME280;35177;45.900;5.946;2023-05-25T07:10:54;97662.44;;;13.25;66.79
49311;BME280;35177;45.900;5.946;2023-05-25T07:13:19;97662.59;;;13.35;68.17
49311;BME280;35177;45.900;5.946;2023-05-25T07:15:45;97666.31;;;13.32;66.46
49311;BME280;35177;45.900;5.946;2023-05-25T07:18:11;97661.84;;;13.33;67.94
49311;BME280;35177;45.900;5.946;2023-05-25T07:20:38;97662.16;;;13.52;65.18
49311;BME280;35177;45.900;5.946;2023-05-25T07:23:07;97668.94;;;13.67;65.53
49311;BME280;35177;45.900;5.946;2023-05-25T07:25:33;97668.84;;;13.79;65.62
49311;BME280;35177;45.900;5.946;2023-05-25T07:27:58;97670.88;;;13.87;65.64
49311;BME280;35177;45.900;5.946;2023-05-25T07:30:23;97680.06;;;13.83;65.68
49311;BME280;35177;45.900;5.946;2023-05-25T07:32:49;97685.50;;;13.70;65.67
49311;BME280;35177;45.900;5.946;2023-05-25T07:35:14;97679.34;;;13.70;64.61
49311;BME280;35177;45.900;5.946;2023-05-25T07:37:40;97688.03;;;13.61;64.31
49311;BME280;35177;45.900;5.946;2023-05-25T07:40:06;97683.22;;;13.77;65.02
49311;BME280;35177;45.900;5.946;2023-05-25T07:42:32;97690.44;;;13.64;64.93
49311;BME280;35177;45.900;5.946;2023-05-25T07:44:59;97692.16;;;13.76;65.34
49311;BME280;35177;45.900;5.946;2023-05-25T07:47:25;97700.25;;;13.74;65.87
49311;BME280;35177;45.900;5.946;2023-05-25T07:49:51;97696.50;;;13.66;63.60
49311;BME280;35177;45.900;5.946;2023-05-25T07:52:16;97699.75;;;13.69;64.95
49311;BME280;35177;45.900;5.946;2023-05-25T07:54:43;97702.25;;;13.49;64.50
49311;BME280;35177;45.900;5.946;2023-05-25T07:57:09;97705.94;;;13.70;66.46
49311;BME280;35177;45.900;5.946;2023-05-25T07:59:35;97710.75;;;13.65;65.78
49311;BME280;35177;45.900;5.946;2023-05-25T08:02:01;97716.56;;;13.59;66.62
49311;BME280;35177;45.900;5.946;2023-05-25T08:04:26;97723.31;;;13.28;66.98
49311;BME280;35177;45.900;5.946;2023-05-25T08:06:52;97724.22;;;13.40;68.55
49311;BME280;35177;45.900;5.946;2023-05-25T08:09:17;97728.31;;;13.33;70.78
49311;BME280;35177;45.900;5.946;2023-05-25T08:11:43;97730.25;;;13.42;69.06
49311;BME280;35177;45.900;5.946;2023-05-25T08:14:09;97731.56;;;13.36;70.39
49311;BME280;35177;45.900;5.946;2023-05-25T08:16:35;97732.16;;;13.29;70.15
49311;BME280;35177;45.900;5.946;2023-05-25T08:19:01;97746.91;;;13.33;70.65
49311;BME280;35177;45.900;5.946;2023-05-25T08:21:26;97748.03;;;13.17;71.54
49311;BME280;35177;45.900;5.946;2023-05-25T08:23:51;97738.81;;;13.10;73.07
49311;BME280;35177;45.900;5.946;2023-05-25T08:26:18;97747.97;;;13.06;72.95
49311;BME280;35177;45.900;5.946;2023-05-25T08:28:43;97750.81;;;13.03;74.80
49311;BME280;35177;45.900;5.946;2023-05-25T08:31:09;97750.19;;;13.12;76.80
49311;BME280;35177;45.900;5.946;2023-05-25T08:33:36;97757.88;;;13.28;73.84
49311;BME280;35177;45.900;5.946;2023-05-25T08:36:02;97755.91;;;13.43;75.25
49311;BME280;35177;45.900;5.946;2023-05-25T08:38:27;97751.00;;;13.60;74.98
49311;BME280;35177;45.900;5.946;2023-05-25T08:41:02;97756.25;;;13.84;75.65
49311;BME280;35177;45.900;5.946;2023-05-25T08:43:28;97756.84;;;13.87;75.59
49311;BME280;35177;45.900;5.946;2023-05-25T08:46:01;97760.66;;;14.07;73.20
49311;BME280;35177;45.900;5.946;2023-05-25T08:48:29;97760.53;;;14.20;72.85
49311;BME280;35177;45.900;5.946;2023-05-25T08:50:58;97760.25;;;14.35;75.44
49311;BME280;35177;45.900;5.946;2023-05-25T08:53:25;97762.66;;;14.49;73.97
49311;BME280;35177;45.900;5.946;2023-05-25T08:55:53;97764.69;;;14.57;73.23
49311;BME280;35177;45.900;5.946;2023-05-25T08:58:24;97768.00;;;14.49;71.80
49311;BME280;35177;45.900;5.946;2023-05-25T09:00:57;97768.69;;;14.40;71.04
49311;BME280;35177;45.900;5.946;2023-05-25T09:03:25;97767.63;;;14.54;70.85
49311;BME280;35177;45.900;5.946;2023-05-25T09:05:51;97774.63;;;14.77;71.61
49311;BME280;35177;45.900;5.946;2023-05-25T09:08:16;97777.47;;;14.96;70.36
49311;BME280;35177;45.900;5.946;2023-05-25T09:10:44;97776.63;;;15.07;70.05
49311;BME280;35177;45.900;5.946;2023-05-25T09:13:10;97776.00;;;15.14;71.43
49311;BME280;35177;45.900;5.946;2023-05-25T09:15:36;97773.94;;;15.18;70.54
49311;BME280;35177;45.900;5.946;2023-05-25T09:18:02;97774.97;;;15.38;70.90
49311;BME280;35177;45.900;5.946;2023-05-25T09:20:27;97772.69;;;15.33;69.79
49311;BME280;35177;45.900;5.946;2023-05-25T09:22:56;97773.84;;;15.51;70.61
49311;BME280;35177;45.900;5.946;2023-05-25T09:25:24;97788.88;;;15.52;68.11
49311;BME280;35177;45.900;5.946;2023-05-25T09:27:51;97775.56;;;15.73;69.05
49311;BME280;35177;45.900;5.946;2023-05-25T09:30:17;97782.44;;;15.86;67.40
49311;BME280;35177;45.900;5.946;2023-05-25T09:32:42;97779.69;;;15.97;67.28
49311;BME280;35177;45.900;5.946;2023-05-25T09:35:12;97780.19;;;16.33;65.89
49311;BME280;35177;45.900;5.946;2023-05-25T09:37:40;97784.13;;;16.89;64.88
49311;BME280;35177;45.900;5.946;2023-05-25T09:40:06;97794.25;;;16.86;64.39
49311;BME280;35177;45.900;5.946;2023-05-25T09:42:33;97796.59;;;17.09;62.90
49311;BME280;35177;45.900;5.946;2023-05-25T09:44:59;97799.94;;;17.02;64.55
49311;BME280;35177;45.900;5.946;2023-05-25T09:47:28;97793.94;;;17.38;62.16
49311;BME280;35177;45.900;5.946;2023-05-25T09:49:54;97794.56;;;17.51;61.31
49311;BME280;35177;45.900;5.946;2023-05-25T09:52:20;97794.03;;;17.08;62.10
49311;BME280;35177;45.900;5.946;2023-05-25T09:54:48;97797.25;;;17.51;60.78
49311;BME280;35177;45.900;5.946;2023-05-25T09:57:18;97810.50;;;17.81;61.76
49311;BME280;35177;45.900;5.946;2023-05-25T09:59:44;97813.75;;;17.85;60.81
49311;BME280;35177;45.900;5.946;2023-05-25T10:02:11;97813.22;;;17.22;62.06
49311;BME280;35177;45.900;5.946;2023-05-25T10:04:37;97807.22;;;17.40;62.35
49311;BME280;35177;45.900;5.946;2023-05-25T10:07:03;97804.94;;;17.35;61.52
49311;BME280;35177;45.900;5.946;2023-05-25T10:09:29;97805.56;;;17.58;61.72
49311;BME280;35177;45.900;5.946;2023-05-25T10:11:56;97809.66;;;17.81;61.48
49311;BME280;35177;45.900;5.946;2023-05-25T10:14:25;97804.31;;;17.81;61.39
49311;BME280;35177;45.900;5.946;2023-05-25T10:16:53;97812.75;;;17.86;61.99
49311;BME280;35177;45.900;5.946;2023-05-25T10:19:26;97808.25;;;17.86;61.73
49311;BME280;35177;45.900;5.946;2023-05-25T10:22:00;97815.28;;;17.97;59.65
49311;BME280;35177;45.900;5.946;2023-05-25T10:24:56;97803.28;;;18.11;58.78
49311;BME280;35177;45.900;5.946;2023-05-25T10:27:28;97808.69;;;17.72;59.66
49311;BME280;35177;45.900;5.946;2023-05-25T10:29:58;97810.78;;;18.07;61.67
49311;BME280;35177;45.900;5.946;2023-05-25T10:32:25;97813.41;;;18.26;57.94
49311;BME280;35177;45.900;5.946;2023-05-25T10:34:51;97814.44;;;18.06;57.70
49311;BME280;35177;45.900;5.946;2023-05-25T10:37:18;97817.78;;;18.27;57.66
49311;BME280;35177;45.900;5.946;2023-05-25T10:39:44;97818.03;;;19.26;54.80
49311;BME280;35177;45.900;5.946;2023-05-25T10:42:11;97812.38;;;19.29;56.80
49311;BME280;35177;45.900;5.946;2023-05-25T10:44:39;97807.44;;;20.40;52.97
49311;BME280;35177;45.900;5.946;2023-05-25T10:47:05;97805.75;;;20.65;51.65
49311;BME280;35177;45.900;5.946;2023-05-25T10:49:32;97807.03;;;20.87;49.56
49311;BME280;35177;45.900;5.946;2023-05-25T10:51:59;97812.31;;;20.96;48.97
49311;BME280;35177;45.900;5.946;2023-05-25T10:54:34;97816.84;;;20.96;49.31
49311;BME280;35177;45.900;5.946;2023-05-25T10:57:11;97812.53;;;21.44;50.21
49311;BME280;35177;45.900;5.946;2023-05-25T10:59:42;97815.47;;;21.17;48.69
49311;BME280;35177;45.900;5.946;2023-05-25T11:02:10;97817.06;;;21.02;50.81
49311;BME280;35177;45.900;5.946;2023-05-25T11:04:36;97813.38;;;21.45;49.98
49311;BME280;35177;45.900;5.946;2023-05-25T11:09:28;97823.84;;;21.48;48.53
49311;BME280;35177;45.900;5.946;2023-05-25T11:17:09;97805.94;;;22.05;47.59
49311;BME280;35177;45.900;5.946;2023-05-25T11:22:17;97803.91;;;21.91;48.30
49311;BME280;35177;45.900;5.946;2023-05-25T11:24:49;97799.56;;;22.46;45.80
49311;BME280;35177;45.900;5.946;2023-05-25T11:27:15;97804.97;;;22.30;46.72
49311;BME280;35177;45.900;5.946;2023-05-25T11:29:49;97801.72;;;22.75;46.97
49311;BME280;35177;45.900;5.946;2023-05-25T11:32:15;97804.75;;;22.56;45.17
49311;BME280;35177;45.900;5.946;2023-05-25T11:34:41;97801.34;;;22.86;46.46
49311;BME280;35177;45.900;5.946;2023-05-25T11:37:17;97798.75;;;23.09;44.62
49311;BME280;35177;45.900;5.946;2023-05-25T11:39:49;97794.41;;;22.92;45.14
49311;BME280;35177;45.900;5.946;2023-05-25T11:42:16;97793.75;;;22.81;44.56
49311;BME280;35177;45.900;5.946;2023-05-25T11:44:42;97788.16;;;22.91;43.63
49311;BME280;35177;45.900;5.946;2023-05-25T11:47:11;97785.56;;;22.51;46.48
49311;BME280;35177;45.900;5.946;2023-05-25T11:49:44;97788.69;;;22.95;42.31
49311;BME280;35177;45.900;5.946;2023-05-25T11:52:20;97791.22;;;23.35;43.78
49311;BME280;35177;45.900;5.946;2023-05-25T11:54:48;97798.78;;;23.39;44.54
49311;BME280;35177;45.900;5.946;2023-05-25T11:57:22;97798.59;;;23.49;43.10
49311;BME280;35177;45.900;5.946;2023-05-25T11:59:52;97802.75;;;23.21;43.94
49311;BME280;35177;45.900;5.946;2023-05-25T12:02:19;97808.38;;;23.03;45.72
49311;BME280;35177;45.900;5.946;2023-05-25T12:04:59;97800.75;;;23.15;43.95
49311;BME280;35177;45.900;5.946;2023-05-25T12:07:29;97798.16;;;22.83;44.13
49311;BME280;35177;45.900;5.946;2023-05-25T12:12:42;97807.72;;;23.48;45.56
49311;BME280;35177;45.900;5.946;2023-05-25T12:15:09;97815.22;;;23.22;43.30
49311;BME280;35177;45.900;5.946;2023-05-25T12:17:37;97812.06;;;23.10;44.87
49311;BME280;35177;45.900;5.946;2023-05-25T12:20:05;97813.44;;;23.53;44.35
49311;BME280;35177;45.900;5.946;2023-05-25T12:22:32;97810.03;;;23.59;44.65
49311;BME280;35177;45.900;5.946;2023-05-25T12:24:58;97823.78;;;23.72;42.59
49311;BME280;35177;45.900;5.946;2023-05-25T12:27:24;97818.44;;;23.64;44.93
49311;BME280;35177;45.900;5.946;2023-05-25T12:29:49;97821.00;;;23.58;44.83
49311;BME280;35177;45.900;5.946;2023-05-25T12:32:17;97814.50;;;23.44;43.28
49311;BME280;35177;45.900;5.946;2023-05-25T12:34:44;97817.47;;;23.57;43.61
49311;BME280;35177;45.900;5.946;2023-05-25T12:37:20;97812.50;;;23.38;42.81
49311;BME280;35177;45.900;5.946;2023-05-25T12:39:46;97816.34;;;23.43;43.04
49311;BME280;35177;45.900;5.946;2023-05-25T12:42:14;97817.00;;;22.99;43.32
49311;BME280;35177;45.900;5.946;2023-05-25T12:44:40;97821.47;;;22.43;44.20
49311;BME280;35177;45.900;5.946;2023-05-25T12:49:38;97825.75;;;23.01;45.00
49311;BME280;35177;45.900;5.946;2023-05-25T12:52:04;97819.31;;;23.18;44.28
49311;BME280;35177;45.900;5.946;2023-05-25T12:54:44;97830.13;;;23.57;43.77
49311;BME280;35177;45.900;5.946;2023-05-25T12:57:15;97827.84;;;22.42;43.87
49311;BME280;35177;45.900;5.946;2023-05-25T12:59:43;97821.94;;;22.79;46.22
49311;BME280;35177;45.900;5.946;2023-05-25T13:02:12;97825.13;;;22.58;44.41
49311;BME280;35177;45.900;5.946;2023-05-25T13:04:39;97817.91;;;22.75;44.24
49311;BME280;35177;45.900;5.946;2023-05-25T13:07:07;97824.31;;;22.58;45.58
49311;BME280;35177;45.900;5.946;2023-05-25T13:09:33;97817.91;;;22.75;47.45
49311;BME280;35177;45.900;5.946;2023-05-25T13:12:00;97831.72;;;22.56;46.59
49311;BME280;35177;45.900;5.946;2023-05-25T13:14:27;97825.50;;;22.71;44.68
49311;BME280;35177;45.900;5.946;2023-05-25T13:16:53;97834.19;;;23.14;44.33
49311;BME280;35177;45.900;5.946;2023-05-25T13:19:22;97835.50;;;23.10;43.96